Time;durP1;ratioP1;P1;durP2;ratioP2;P2;SDS_P1;SDS_P2;PMS_P1;PMS_P2;Temp;Humidity;BMP_temperature;BMP_pressure;BME280_temperature;BME280_humidity;BME280_pressure;Samples;Min_cycle;Max_cycle;Signal;HPM_P1;HPM_P2
2024/01/31 00:01:37;;;;;;;17.20;9.80;;;;;;;-1.41;68.79;100457.30;108830;1260;74315;-26
2024/01/31 00:04:05;;;;;;;17.40;8.10;;;;;;;-1.45;69.13;100458.36;108917;1260;72649;-27
2024/01/31 00:06:33;;;;;;;15.10;7.60;;;;;;;-1.57;69.56;100459.48;108982;1260;59245;-27
2024/01/31 00:09:00;;;;;;;8.90;5.80;;;;;;;-1.63;69.89;100463.64;108897;1260;59504;-27
2024/01/31 00:11:31;;;;;;;8.70;5.90;;;;;;;-1.70;69.78;100462.83;108896;1260;72063;-26
2024/01/31 00:13:58;;;;;;;5.40;3.30;;;;;;;-1.64;69.91;100463.12;108944;1260;73039;-26
2024/01/31 00:16:26;;;;;;;15.40;8.60;;;;;;;-0.95;68.40;100471.66;108917;1260;71343;-26
2024/01/31 00:18:54;;;;;;;16.70;8.70;;;;;;;-0.69;66.89;100473.91;108916;1260;58900;-26
2024/01/31 00:23:14;;;;;;;13.40;7.10;;;;;;;-0.82;67.12;100472.36;102720;1293;600205;-27
2024/01/31 00:32:09;;;;;;;9.60;5.80;;;;;;;-1.59;70.01;100463.08;102676;1294;600136;-28
2024/01/31 00:42:12;;;;;;;9.10;6.00;;;;;;;-1.85;70.65;100459.54;102714;1292;600053;-28
2024/01/31 00:44:42;;;;;;;13.90;7.40;;;;;;;-1.25;69.78;100459.35;104848;1272;61165;-28
2024/01/31 00:47:10;;;;;;;13.00;7.20;;;;;;;-0.56;67.39;100461.30;104831;1269;61766;-28
2024/01/31 00:55:49;;;;;;;11.10;6.10;;;;;;;-0.96;67.91;100451.73;102672;1292;600171;-27
2024/01/31 00:58:17;;;;;;;15.20;6.80;;;;;;;-1.19;68.70;100451.29;104821;1267;61237;-28
2024/01/31 01:00:44;;;;;;;12.90;8.30;;;;;;;-1.31;68.90;100446.48;104827;1270;61222;-28
2024/01/31 01:10:23;;;;;;;17.80;8.00;;;;;;;-1.71;70.01;100435.08;102657;1292;600380;-27
2024/01/31 01:12:50;;;;;;;14.50;6.40;;;;;;;-1.24;69.65;100432.40;105027;1266;61046;-28
2024/01/31 01:15:19;;;;;;;14.90;7.90;;;;;;;-0.59;67.23;100435.92;104845;1266;61072;-28
2024/01/31 01:17:46;;;;;;;14.80;9.20;;;;;;;-0.45;66.44;100433.52;104863;1266;70246;-29
2024/01/31 01:20:14;;;;;;;16.80;9.30;;;;;;;-0.46;66.19;100429.62;104927;1272;73207;-28
2024/01/31 01:22:42;;;;;;;18.30;8.20;;;;;;;-0.70;66.55;100426.52;104904;1269;70457;-28
2024/01/31 01:25:10;;;;;;;15.60;8.10;;;;;;;-0.92;67.34;100416.90;105070;1269;165811;-28
2024/01/31 01:27:38;;;;;;;13.90;6.90;;;;;;;-1.18;67.80;100411.73;105164;1262;61053;-28
2024/01/31 01:30:07;;;;;;;13.00;7.50;;;;;;;-1.35;68.53;100406.65;104857;1269;72201;-28
2024/01/31 01:32:35;;;;;;;14.90;7.90;;;;;;;-1.52;69.18;100402.72;104881;1269;74478;-28
2024/01/31 01:35:03;;;;;;;12.70;6.80;;;;;;;-1.69;70.00;100398.63;104889;1270;71742;-28
2024/01/31 01:45:09;;;;;;;16.00;7.00;;;;;;;-0.40;65.98;100399.15;102688;1293;599987;-28
2024/01/31 01:55:18;;;;;;;14.80;7.10;;;;;;;-1.19;67.49;100403.40;102744;1292;599377;-29
2024/01/31 01:57:45;;;;;;;12.20;7.30;;;;;;;-1.27;67.39;100397.52;105162;1268;61235;-28
2024/01/31 02:00:13;;;;;;;15.30;7.40;;;;;;;-1.37;67.19;100397.48;104897;1265;61181;-28
2024/01/31 02:02:41;;;;;;;14.70;7.80;;;;;;;-1.54;67.16;100393.72;105007;1266;70957;-28
2024/01/31 02:05:08;;;;;;;13.00;7.30;;;;;;;-1.70;67.06;100389.09;105518;1262;73489;-28
2024/01/31 02:07:36;;;;;;;10.60;5.70;;;;;;;-1.87;67.21;100385.33;105477;1260;71486;-27
2024/01/31 02:10:05;;;;;;;11.00;5.70;;;;;;;-2.12;69.77;100381.62;105293;1255;194096;-28
2024/01/31 02:12:33;;;;;;;5.60;3.70;;;;;;;-1.65;69.87;100376.27;105663;1254;61046;-28
2024/01/31 02:15:00;;;;;;;10.50;6.40;;;;;;;-1.06;68.09;100371.89;105637;1255;71010;-28
2024/01/31 02:17:28;;;;;;;15.70;5.70;;;;;;;-0.91;67.29;100371.20;105689;1254;73109;-28
2024/01/31 02:19:56;;;;;;;6.60;5.60;;;;;;;-1.18;67.88;100362.31;105539;1256;72595;-28
2024/01/31 02:22:24;;;;;;;10.30;6.90;;;;;;;-1.49;68.74;100358.08;105539;1254;61154;-28
2024/01/31 02:24:51;;;;;;;11.60;6.00;;;;;;;-1.74;69.51;100362.05;105667;1255;61202;-28
2024/01/31 02:34:59;;;;;;;11.40;6.30;;;;;;;-1.45;69.73;100361.26;102712;1290;599484;-29
2024/01/31 02:45:03;;;;;;;7.40;5.60;;;;;;;-1.70;69.40;100350.95;102626;1291;599897;-27
2024/01/31 02:47:33;;;;;;;8.10;5.70;;;;;;;-1.93;69.93;100350.49;105301;1256;61164;-28
2024/01/31 02:50:01;;;;;;;11.60;6.00;;;;;;;-2.08;70.39;100352.48;105616;1256;61174;-28
2024/01/31 02:52:29;;;;;;;15.30;7.40;;;;;;;-2.21;70.55;100355.33;105661;1262;70967;-28
2024/01/31 02:54:58;;;;;;;13.30;7.00;;;;;;;-1.94;70.50;100358.66;105566;1261;73224;-28
2024/01/31 02:57:25;;;;;;;13.70;6.80;;;;;;;-1.37;68.80;100362.89;105652;1256;71593;-28
2024/01/31 03:07:29;;;;;;;12.70;6.80;;;;;;;-1.68;68.82;100356.72;102674;1292;600286;-27
2024/01/31 03:09:57;;;;;;;16.50;8.80;;;;;;;-1.93;69.49;100356.45;105053;1269;61177;-28
2024/01/31 03:12:24;;;;;;;14.30;7.50;;;;;;;-2.05;69.35;100356.39;104852;1266;61158;-28
2024/01/31 03:14:52;;;;;;;12.80;7.00;;;;;;;-2.18;69.71;100352.08;104836;1266;72181;-28
2024/01/31 03:24:56;;;;;;;9.60;6.00;;;;;;;-1.08;67.36;100353.34;102719;1293;599409;-28
2024/01/31 03:35:02;;;;;;;18.70;9.40;;;;;;;-2.07;69.46;100340.40;102745;1292;600044;-27
2024/01/31 03:37:29;;;;;;;16.80;7.90;;;;;;;-2.26;69.70;100339.04;104883;1265;61206;-28
2024/01/31 03:47:37;;;;;;;14.20;8.10;;;;;;;-1.50;68.27;100330.80;102749;1293;599285;-27
2024/01/31 03:50:05;;;;;;;14.60;7.90;;;;;;;-1.62;67.88;100331.98;104808;1270;61228;-28
2024/01/31 03:52:35;;;;;;;8.60;6.20;;;;;;;-1.85;68.37;100331.86;104906;1266;62610;-28
2024/01/31 03:55:04;;;;;;;20.30;8.60;;;;;;;-2.09;68.98;100333.61;104830;1268;70984;-28
2024/01/31 03:57:32;;;;;;;6.50;4.20;;;;;;;-2.30;69.38;100333.10;104852;1267;74253;-28
2024/01/31 04:00:05;;;;;;;12.30;7.00;;;;;;;-2.56;70.14;100331.94;104815;1267;72657;-28
2024/01/31 04:02:33;;;;;;;7.90;5.60;;;;;;;-2.69;71.34;100331.17;104816;1264;61982;-28
2024/01/31 04:12:41;;;;;;;5.70;4.80;;;;;;;-1.98;69.37;100325.68;102747;1294;599437;-27
2024/01/31 04:15:09;;;;;;;16.30;7.10;;;;;;;-2.22;70.12;100321.65;104898;1264;61110;-28
2024/01/31 04:25:14;;;;;;;11.50;6.20;;;;;;;-1.95;70.03;100316.80;102687;1292;599982;-27
2024/01/31 04:27:42;;;;;;;11.30;6.20;;;;;;;-2.00;69.97;100314.46;105082;1266;61203;-28
2024/01/31 04:30:10;;;;;;;8.70;5.30;;;;;;;-2.05;69.69;100313.17;108729;1266;58972;-26
2024/01/31 04:32:38;;;;;;;11.40;6.40;;;;;;;-2.44;71.16;100306.86;108635;1266;71090;-26
2024/01/31 04:35:09;;;;;;;11.00;6.70;;;;;;;-2.75;72.29;100302.31;108675;1265;74239;-26
2024/01/31 04:37:38;;;;;;;13.30;8.10;;;;;;;-2.92;73.21;100302.41;108563;1265;70764;-26
2024/01/31 04:40:06;;;;;;;7.00;4.50;;;;;;;-2.70;73.06;100298.86;108493;1264;59968;-27
2024/01/31 04:42:34;;;;;;;11.80;6.50;;;;;;;-2.04;70.82;100300.89;108704;1264;58781;-26
2024/01/31 04:45:01;;;;;;;16.40;8.40;;;;;;;-1.79;69.92;100296.73;109475;1253;72232;-26
2024/01/31 04:47:29;;;;;;;14.20;8.20;;;;;;;-1.83;69.07;100293.73;109426;1253;74267;-26
2024/01/31 04:49:58;;;;;;;11.60;7.40;;;;;;;-1.91;69.45;100300.77;109400;1253;71380;-26
2024/01/31 04:52:26;;;;;;;17.20;9.40;;;;;;;-2.20;70.29;100301.89;109379;1254;59335;-27
2024/01/31 04:54:53;;;;;;;13.40;7.10;;;;;;;-2.22;70.55;100303.95;109353;1253;60042;-26
2024/01/31 04:57:21;;;;;;;16.10;8.60;;;;;;;-2.35;70.97;100301.67;109432;1253;71769;-26
2024/01/31 04:59:48;;;;;;;9.40;6.20;;;;;;;-2.47;70.74;100295.64;109457;1253;74277;-26
2024/01/31 05:02:15;;;;;;;6.20;4.20;;;;;;;-2.52;71.60;100295.00;109429;1253;72052;-28
2024/01/31 05:04:43;;;;;;;17.80;8.60;;;;;;;-2.03;70.55;100297.13;109287;1254;59320;-26
2024/01/31 05:07:11;;;;;;;5.20;3.60;;;;;;;-1.71;69.17;100293.58;109306;1259;58747;-26
2024/01/31 05:09:38;;;;;;;14.10;7.20;;;;;;;-1.68;69.11;100297.98;109472;1253;73093;-27
2024/01/31 05:12:06;;;;;;;12.90;7.50;;;;;;;-1.82;68.92;100297.10;109457;1253;72064;-26
2024/01/31 05:14:33;;;;;;;18.90;8.10;;;;;;;-1.96;69.19;100300.82;109289;1253;72662;-26
2024/01/31 05:17:01;;;;;;;12.50;8.00;;;;;;;-2.19;69.64;100300.52;109286;1253;59269;-26
2024/01/31 05:19:28;;;;;;;21.20;10.30;;;;;;;-2.36;70.48;100298.45;109452;1253;58795;-27
2024/01/31 05:21:57;;;;;;;21.00;11.70;;;;;;;-2.44;70.19;100301.23;109446;1253;71617;-26
2024/01/31 05:24:25;;;;;;;24.00;10.10;;;;;;;-2.62;70.95;100301.70;109402;1253;72617;-26
2024/01/31 05:26:52;;;;;;;21.10;10.00;;;;;;;-2.69;71.10;100304.31;109314;1253;72498;-26
2024/01/31 05:29:20;;;;;;;12.60;7.10;;;;;;;-2.84;72.11;100301.00;109247;1253;61685;-26
2024/01/31 05:31:47;;;;;;;11.40;6.60;;;;;;;-2.39;71.76;100299.48;109427;1254;60076;-26
2024/01/31 05:34:14;;;;;;;13.60;7.70;;;;;;;-1.60;69.35;100298.21;109411;1254;73018;-27
2024/01/31 05:36:42;;;;;;;10.00;6.60;;;;;;;-1.51;68.37;100291.82;109259;1254;73294;-26
2024/01/31 05:39:11;;;;;;;9.90;6.60;;;;;;;-1.73;68.76;100287.82;109412;1256;72696;-26
2024/01/31 05:41:42;;;;;;;14.30;7.30;;;;;;;-1.89;69.51;100287.14;109297;1254;59264;-27
2024/01/31 05:44:10;;;;;;;12.30;8.30;;;;;;;-2.24;70.54;100286.95;109182;1256;58802;-26
2024/01/31 05:46:37;;;;;;;14.60;9.20;;;;;;;-2.41;71.16;100281.83;109335;1254;73064;-27
2024/01/31 05:49:05;;;;;;;11.10;7.20;;;;;;;-2.52;71.77;100277.15;109318;1254;72846;-26
2024/01/31 05:51:32;;;;;;;18.20;9.50;;;;;;;-2.63;72.42;100278.92;109389;1255;72676;-26
2024/01/31 05:54:00;;;;;;;17.10;7.90;;;;;;;-2.70;72.38;100280.68;109357;1257;58807;-26
2024/01/31 05:56:27;;;;;;;15.20;7.40;;;;;;;-2.42;72.10;100280.13;109313;1254;59098;-26
2024/01/31 05:58:55;;;;;;;12.60;8.30;;;;;;;-1.63;69.69;100283.61;109426;1256;73031;-27
2024/01/31 06:01:22;;;;;;;17.00;9.10;;;;;;;-1.35;68.39;100282.77;109410;1254;72290;-27
2024/01/31 06:03:50;;;;;;;14.50;7.50;;;;;;;-1.47;68.08;100282.25;109392;1256;71379;-27
2024/01/31 06:06:17;;;;;;;16.20;8.60;;;;;;;-1.74;68.70;100279.46;109408;1254;59275;-26
2024/01/31 06:08:45;;;;;;;14.70;8.70;;;;;;;-1.94;69.30;100277.15;109417;1254;59994;-26
2024/01/31 06:11:12;;;;;;;18.70;8.50;;;;;;;-2.11;70.33;100277.14;109387;1254;72243;-26
2024/01/31 06:13:39;;;;;;;19.20;8.30;;;;;;;-2.23;70.48;100277.92;109443;1254;74405;-27
2024/01/31 06:16:07;;;;;;;13.10;7.70;;;;;;;-2.31;70.56;100279.20;109369;1254;71433;-27
2024/01/31 06:18:35;;;;;;;14.90;6.20;;;;;;;-2.52;71.86;100276.14;109384;1257;60047;-26
2024/01/31 06:21:02;;;;;;;6.70;4.30;;;;;;;-2.32;72.10;100279.02;109407;1254;58741;-26
2024/01/31 06:23:30;;;;;;;14.90;7.40;;;;;;;-1.70;69.68;100278.75;109253;1253;71719;-26
2024/01/31 06:26:02;;;;;;;19.80;10.50;;;;;;;-1.60;69.10;100274.55;109398;1254;74317;-26
2024/01/31 06:28:30;;;;;;;17.10;8.40;;;;;;;-1.50;68.73;100273.92;109091;1254;72782;-27
2024/01/31 06:31:13;;;;;;;14.10;7.80;;;;;;;-1.53;68.88;100276.17;109264;1257;58855;-27
2024/01/31 06:33:41;;;;;;;13.60;7.90;;;;;;;-1.50;68.84;100274.79;109290;1254;58865;-26
2024/01/31 06:36:09;;;;;;;15.80;9.00;;;;;;;-1.62;69.05;100278.66;109428;1254;73033;-26
2024/01/31 06:38:36;;;;;;;14.10;8.80;;;;;;;-1.57;68.98;100279.97;109235;1254;73010;-27
2024/01/31 06:41:04;;;;;;;19.60;8.90;;;;;;;-1.40;68.81;100279.61;109411;1254;72680;-27
2024/01/31 06:43:31;;;;;;;18.40;9.30;;;;;;;-1.36;68.63;100282.10;109161;1254;59327;-26
2024/01/31 06:45:59;;;;;;;11.10;6.50;;;;;;;-1.24;68.34;100283.33;109394;1257;60046;-26
2024/01/31 06:48:28;;;;;;;15.30;8.50;;;;;;;-1.27;68.61;100282.52;109411;1254;70999;-26
2024/01/31 06:50:56;;;;;;;15.10;7.70;;;;;;;-0.81;67.95;100278.96;109441;1254;74267;-26
2024/01/31 06:53:23;;;;;;;18.90;10.00;;;;;;;0.09;65.35;100280.73;109219;1254;71455;-27
2024/01/31 06:55:51;;;;;;;16.10;7.60;;;;;;;0.51;64.07;100279.24;109386;1254;59123;-27
2024/01/31 06:58:19;;;;;;;21.30;10.00;;;;;;;0.58;63.33;100279.96;109435;1254;60262;-26
2024/01/31 07:00:47;;;;;;;18.40;10.30;;;;;;;0.63;63.47;100279.87;109332;1254;71471;-26
2024/01/31 07:03:14;;;;;;;31.60;14.40;;;;;;;0.55;63.07;100280.86;109349;1254;73244;-26
2024/01/31 07:05:42;;;;;;;38.50;16.40;;;;;;;0.58;63.12;100281.84;109419;1254;73555;-27
2024/01/31 07:08:09;;;;;;;22.50;11.60;;;;;;;0.68;63.30;100280.77;109316;1254;58922;-26
2024/01/31 07:10:37;;;;;;;15.80;8.70;;;;;;;0.83;63.13;100273.46;109300;1254;60946;-26
2024/01/31 07:13:05;;;;;;;14.30;8.80;;;;;;;0.97;63.21;100273.16;109291;1254;71735;-27
2024/01/31 07:15:33;;;;;;;11.70;7.50;;;;;;;1.13;62.47;100265.45;109413;1254;74319;-26
2024/01/31 07:18:00;;;;;;;16.20;9.10;;;;;;;1.20;61.65;100266.48;109386;1254;72663;-26
2024/01/31 07:20:28;;;;;;;15.80;8.70;;;;;;;1.35;61.04;100267.15;109266;1254;59306;-27
2024/01/31 07:22:55;;;;;;;15.50;9.40;;;;;;;1.51;60.67;100265.58;109350;1254;58874;-27
2024/01/31 07:25:22;;;;;;;12.70;6.90;;;;;;;1.68;60.25;100267.75;109179;1254;73020;-26
2024/01/31 07:27:50;;;;;;;13.00;7.50;;;;;;;1.82;59.91;100268.24;109230;1254;74376;-27
2024/01/31 07:30:17;;;;;;;12.90;8.20;;;;;;;1.96;59.29;100268.40;109308;1256;71351;-27
2024/01/31 07:32:45;;;;;;;18.10;8.80;;;;;;;2.05;58.94;100266.27;109197;1257;58769;-26
2024/01/31 07:35:12;;;;;;;16.50;9.60;;;;;;;2.05;58.72;100265.25;109273;1255;59139;-26
2024/01/31 07:37:40;;;;;;;18.30;8.90;;;;;;;2.07;58.65;100265.18;109250;1259;71818;-27
2024/01/31 07:40:10;;;;;;;16.00;9.00;;;;;;;2.08;58.22;100259.52;109264;1255;74396;-27
2024/01/31 07:42:38;;;;;;;16.20;9.30;;;;;;;2.00;58.41;100258.19;109110;1255;72633;-27
2024/01/31 07:45:06;;;;;;;14.90;8.60;;;;;;;1.92;58.75;100256.33;109244;1256;58875;-27
2024/01/31 07:47:36;;;;;;;16.90;7.70;;;;;;;1.91;58.85;100253.60;109281;1256;58804;-27
2024/01/31 07:50:05;;;;;;;14.40;8.60;;;;;;;1.96;58.87;100254.86;109271;1256;73059;-26
2024/01/31 07:52:33;;;;;;;16.50;8.60;;;;;;;2.01;59.08;100251.66;109236;1256;73221;-26
2024/01/31 07:55:01;;;;;;;14.70;7.70;;;;;;;2.03;58.66;100250.90;109225;1256;72671;-26
2024/01/31 07:57:28;;;;;;;13.20;8.00;;;;;;;2.06;59.05;100248.27;109242;1256;59281;-26
2024/01/31 07:59:56;;;;;;;13.40;7.10;;;;;;;2.10;58.68;100251.23;109130;1256;60052;-27
2024/01/31 08:02:23;;;;;;;12.10;6.80;;;;;;;2.13;58.35;100246.02;109260;1256;73076;-26
2024/01/31 08:04:54;;;;;;;11.60;6.30;;;;;;;2.20;58.29;100249.25;109138;1255;76606;-27
2024/01/31 08:07:22;;;;;;;14.60;7.00;;;;;;;2.25;58.22;100248.08;109232;1257;71434;-26
2024/01/31 08:09:49;;;;;;;11.50;6.10;;;;;;;2.33;57.49;100248.20;109222;1255;58686;-26
2024/01/31 08:12:17;;;;;;;11.10;6.70;;;;;;;2.45;57.02;100248.55;109228;1256;58711;-26
2024/01/31 08:14:45;;;;;;;10.90;6.30;;;;;;;2.60;56.75;100247.13;109267;1256;75290;-27
2024/01/31 08:17:12;;;;;;;12.40;6.60;;;;;;;2.74;56.18;100248.21;109144;1255;73265;-26
2024/01/31 08:19:40;;;;;;;12.50;6.50;;;;;;;2.88;55.83;100244.23;109220;1260;71367;-26
2024/01/31 08:22:08;;;;;;;12.80;7.00;;;;;;;3.23;55.32;100245.55;109239;1255;58836;-26
2024/01/31 08:24:35;;;;;;;10.60;6.30;;;;;;;3.68;54.30;100241.36;109150;1259;58747;-26
2024/01/31 08:27:03;;;;;;;10.10;6.50;;;;;;;4.03;52.88;100237.02;109207;1256;72924;-26
2024/01/31 08:29:30;;;;;;;10.00;5.80;;;;;;;4.33;51.72;100234.60;109087;1256;74205;-26
2024/01/31 08:31:59;;;;;;;10.20;5.90;;;;;;;4.46;50.99;100233.78;109056;1257;73502;-26
2024/01/31 08:34:26;;;;;;;9.00;5.70;;;;;;;4.40;51.04;100234.20;109089;1257;58858;-26
2024/01/31 08:36:58;;;;;;;9.20;6.00;;;;;;;4.34;50.97;100227.55;109096;1256;58738;-26
2024/01/31 08:39:28;;;;;;;10.50;5.60;;;;;;;4.41;51.31;100233.63;109060;1256;73826;-28
2024/01/31 08:41:55;;;;;;;10.50;6.20;;;;;;;4.74;51.24;100229.32;109088;1257;75362;-26
2024/01/31 08:44:23;;;;;;;10.90;6.60;;;;;;;4.95;50.04;100226.28;109032;1261;74048;-27
2024/01/31 08:46:51;;;;;;;10.30;6.60;;;;;;;5.11;50.14;100229.96;109086;1256;58828;-26
2024/01/31 08:49:39;;;;;;;10.60;5.80;;;;;;;5.50;49.81;100225.27;109036;1258;59724;-27
2024/01/31 08:52:06;;;;;;;8.60;6.10;;;;;;;5.76;49.50;100226.06;109098;1257;74266;-27
2024/01/31 08:54:34;;;;;;;9.50;6.30;;;;;;;6.09;48.09;100224.52;109099;1257;76651;-27
2024/01/31 08:57:02;;;;;;;9.00;5.50;;;;;;;6.35;47.14;100220.11;109071;1262;74056;-27
2024/01/31 08:59:29;;;;;;;9.20;5.60;;;;;;;6.58;46.79;100216.63;109056;1257;62146;-26
2024/01/31 09:01:57;;;;;;;9.00;5.70;;;;;;;6.75;45.63;100220.70;109076;1257;58788;-26
2024/01/31 09:04:25;;;;;;;10.50;6.20;;;;;;;6.99;45.82;100224.58;109068;1256;71922;-26
2024/01/31 09:06:53;;;;;;;8.70;5.60;;;;;;;7.28;45.33;100220.11;109062;1257;73250;-27
2024/01/31 09:09:20;;;;;;;8.50;5.30;;;;;;;7.43;44.50;100216.45;109065;1257;71790;-27
2024/01/31 09:11:48;;;;;;;9.00;5.90;;;;;;;7.55;43.68;100213.23;109059;1257;60220;-27
2024/01/31 09:14:15;;;;;;;6.60;4.70;;;;;;;7.81;43.24;100206.41;109115;1257;59208;-26
2024/01/31 09:16:43;;;;;;;8.40;5.00;;;;;;;7.97;42.52;100202.83;109070;1257;72381;-26
2024/01/31 09:19:11;;;;;;;7.60;3.90;;;;;;;8.11;42.61;100204.83;109045;1258;74736;-26
2024/01/31 09:21:38;;;;;;;7.20;5.30;;;;;;;7.86;42.52;100199.06;109020;1260;72142;-27
2024/01/31 09:24:06;;;;;;;8.40;5.20;;;;;;;7.38;43.26;100198.67;109100;1257;60971;-27
2024/01/31 09:26:34;;;;;;;7.80;4.80;;;;;;;7.23;44.07;100194.59;109165;1255;60403;-27
2024/01/31 09:29:01;;;;;;;6.20;4.90;;;;;;;7.07;44.69;100191.04;109137;1257;73905;-27
2024/01/31 09:31:29;;;;;;;8.80;4.90;;;;;;;6.98;44.62;100184.25;109112;1262;75198;-27
2024/01/31 09:33:57;;;;;;;8.00;5.20;;;;;;;6.79;44.30;100183.90;109109;1257;72907;-27
2024/01/31 09:36:26;;;;;;;7.70;4.80;;;;;;;6.53;44.57;100177.35;109077;1257;60377;-27
2024/01/31 09:38:54;;;;;;;5.70;4.10;;;;;;;6.25;44.80;100177.23;109110;1258;59806;-27
2024/01/31 09:41:21;;;;;;;8.00;4.70;;;;;;;6.23;45.62;100180.66;109108;1260;74026;-26
2024/01/31 09:43:51;;;;;;;10.30;4.40;;;;;;;6.10;45.53;100167.45;109048;1257;75981;-26
2024/01/31 09:46:19;;;;;;;7.00;5.10;;;;;;;6.05;45.31;100169.85;109115;1257;71764;-27
2024/01/31 09:48:47;;;;;;;9.60;5.90;;;;;;;6.13;46.02;100165.04;109009;1263;59558;-27
2024/01/31 09:51:15;;;;;;;8.20;4.80;;;;;;;6.02;45.51;100156.02;109133;1257;58646;-27
2024/01/31 09:53:42;;;;;;;7.10;4.40;;;;;;;5.98;45.06;100156.40;108980;1257;72416;-27
2024/01/31 09:56:10;;;;;;;7.20;4.60;;;;;;;5.92;44.80;100148.20;108995;1257;74337;-26
2024/01/31 09:58:38;;;;;;;8.10;4.70;;;;;;;5.96;45.24;100154.21;109138;1257;72713;-27
2024/01/31 10:01:07;;;;;;;8.60;4.30;;;;;;;6.00;45.19;100150.25;108987;1257;58817;-26
2024/01/31 10:03:47;;;;;;;10.80;5.00;;;;;;;6.07;45.32;100156.50;108954;1257;59023;-26
2024/01/31 10:06:15;;;;;;;7.20;4.00;;;;;;;6.05;45.37;100155.89;109082;1257;75436;-26
2024/01/31 10:08:43;;;;;;;7.00;4.60;;;;;;;6.07;45.26;100156.36;109133;1257;74192;-26
2024/01/31 10:11:10;;;;;;;9.20;5.40;;;;;;;5.97;45.62;100156.26;109106;1257;74889;-27
2024/01/31 10:13:38;;;;;;;10.60;5.30;;;;;;;5.86;46.01;100150.85;109055;1257;58961;-27
2024/01/31 10:16:06;;;;;;;7.80;4.80;;;;;;;5.79;46.16;100148.38;109115;1257;58777;-26
2024/01/31 10:18:34;;;;;;;7.20;4.40;;;;;;;5.79;46.18;100145.30;109044;1257;73984;-26
2024/01/31 10:21:02;;;;;;;7.70;4.50;;;;;;;5.77;46.14;100144.70;109136;1256;74196;-26
2024/01/31 10:23:29;;;;;;;8.90;5.00;;;;;;;5.81;46.69;100143.84;109078;1257;72662;-27
2024/01/31 10:25:57;;;;;;;9.70;5.20;;;;;;;5.85;46.68;100142.98;109088;1257;60779;-27
2024/01/31 10:28:27;;;;;;;6.30;4.00;;;;;;;5.92;46.32;100139.55;109117;1256;59745;-26
2024/01/31 10:30:57;;;;;;;8.00;5.20;;;;;;;5.96;46.75;100138.88;108987;1257;73121;-26
2024/01/31 10:33:27;;;;;;;9.30;5.20;;;;;;;6.02;46.14;100133.81;109039;1257;76122;-27
2024/01/31 10:35:58;;;;;;;8.80;4.20;;;;;;;6.06;46.50;100131.75;109000;1258;74182;-26
2024/01/31 10:38:30;;;;;;;7.00;4.90;;;;;;;6.21;45.89;100127.28;109015;1257;58804;-27
2024/01/31 10:41:03;;;;;;;9.70;5.20;;;;;;;6.40;45.28;100132.10;108977;1257;59056;-27
2024/01/31 10:43:33;;;;;;;8.10;4.80;;;;;;;6.53;45.33;100131.49;108923;1257;73475;-26
2024/01/31 10:46:02;;;;;;;8.30;5.20;;;;;;;6.68;43.72;100129.73;109021;1257;75850;-26
2024/01/31 10:48:33;;;;;;;8.90;5.50;;;;;;;6.94;44.05;100131.25;109030;1257;74179;-26
2024/01/31 10:51:04;;;;;;;9.10;5.70;;;;;;;7.19;43.48;100129.32;108959;1257;60345;-27
2024/01/31 10:53:34;;;;;;;8.90;4.70;;;;;;;7.66;43.38;100125.41;109026;1257;61530;-27
2024/01/31 10:56:04;;;;;;;6.80;4.50;;;;;;;8.23;41.53;100117.91;108996;1257;75995;-27
2024/01/31 10:58:34;;;;;;;8.80;5.50;;;;;;;8.63;40.05;100112.11;108916;1257;73479;-26
2024/01/31 11:01:05;;;;;;;12.90;5.20;;;;;;;9.05;39.09;100113.38;109019;1257;74139;-27
2024/01/31 11:03:35;;;;;;;9.90;5.30;;;;;;;9.34;38.47;100110.80;108972;1260;60341;-27
2024/01/31 11:06:06;;;;;;;8.40;5.40;;;;;;;9.69;38.77;100106.30;109064;1257;60365;-27
2024/01/31 11:08:39;;;;;;;8.20;5.10;;;;;;;9.97;37.90;100100.45;109036;1257;72747;-26
2024/01/31 11:11:13;;;;;;;9.00;5.30;;;;;;;10.16;37.15;100095.80;109008;1257;74958;-27
2024/01/31 11:13:44;;;;;;;9.70;5.20;;;;;;;10.48;37.38;100096.42;108981;1257;73358;-27
2024/01/31 11:16:24;;;;;;;8.50;4.90;;;;;;;10.76;36.48;100089.73;109020;1257;59009;-27
2024/01/31 11:18:54;;;;;;;9.00;5.50;;;;;;;10.81;35.76;100087.88;109022;1257;61595;-26
2024/01/31 11:21:24;;;;;;;7.50;5.10;;;;;;;10.85;36.08;100086.02;109053;1257;73706;-26
2024/01/31 11:23:55;;;;;;;7.00;4.80;;;;;;;10.92;35.75;100084.34;109031;1257;74170;-26
2024/01/31 11:26:34;;;;;;;6.70;4.60;;;;;;;10.82;35.12;100076.86;109013;1257;74174;-27
2024/01/31 11:29:04;;;;;;;5.80;3.90;;;;;;;10.50;34.84;100073.85;108980;1257;59445;-26
2024/01/31 11:39:07;;;;;;;8.60;4.50;;;;;;;9.61;35.72;100053.73;102695;1290;599430;-25
2024/01/31 11:41:35;;;;;;;6.00;4.00;;;;;;;9.50;35.73;100061.33;105054;1269;61189;-25
2024/01/31 11:44:03;;;;;;;6.60;4.60;;;;;;;9.82;35.84;100061.13;105070;1270;62293;-25
2024/01/31 11:46:31;;;;;;;6.20;4.60;;;;;;;9.98;36.04;100058.73;104875;1269;72308;-25
2024/01/31 11:48:59;;;;;;;6.30;4.00;;;;;;;10.06;35.90;100062.92;104878;1270;76553;-25
2024/01/31 11:51:28;;;;;;;7.40;4.20;;;;;;;9.88;35.40;100056.42;104914;1270;72280;-25
2024/01/31 11:53:56;;;;;;;7.80;4.80;;;;;;;9.48;36.14;100052.63;104696;1264;203172;-25
2024/01/31 11:56:23;;;;;;;5.60;4.00;;;;;;;9.31;36.84;100048.56;104870;1270;61204;-26
2024/01/31 11:58:51;;;;;;;7.00;4.50;;;;;;;9.14;36.71;100049.29;105186;1268;72520;-27
2024/01/31 12:01:19;;;;;;;9.50;5.10;;;;;;;9.09;37.97;100055.25;105194;1264;73969;-27
2024/01/31 12:03:47;;;;;;;7.50;4.40;;;;;;;8.91;37.80;100050.80;105083;1265;72332;-28
2024/01/31 12:06:18;;;;;;;6.10;4.30;;;;;;;8.26;38.36;100044.73;104985;1263;62182;-27
2024/01/31 12:08:49;;;;;;;8.00;5.00;;;;;;;8.07;38.59;100040.07;105576;1259;61037;-27
2024/01/31 12:11:17;;;;;;;9.80;5.50;;;;;;;7.97;39.75;100039.59;105606;1263;74085;-25
2024/01/31 12:13:45;;;;;;;8.30;5.30;;;;;;;8.00;40.05;100032.33;105661;1260;72759;-26
2024/01/31 12:16:13;;;;;;;7.40;3.70;;;;;;;8.12;39.33;100027.33;105740;1260;72727;-27
2024/01/31 12:18:41;;;;;;;8.90;4.80;;;;;;;8.33;38.76;100028.23;105641;1260;61064;-27
2024/01/31 12:21:10;;;;;;;5.20;3.60;;;;;;;8.39;39.61;100033.44;105645;1259;61858;-27
2024/01/31 12:23:38;;;;;;;7.90;4.50;;;;;;;8.55;39.19;100032.94;105662;1254;74988;-27
2024/01/31 12:26:05;;;;;;;5.90;4.30;;;;;;;8.49;39.30;100027.55;105545;1260;74478;-27
2024/01/31 12:28:33;;;;;;;7.50;4.50;;;;;;;8.55;39.27;100031.06;105603;1257;72054;-27
2024/01/31 12:31:01;;;;;;;8.40;4.50;;;;;;;8.54;39.10;100023.66;105549;1260;61262;-27
2024/01/31 12:33:28;;;;;;;7.60;4.80;;;;;;;8.53;39.37;100022.84;105413;1260;61076;-27
2024/01/31 12:35:56;;;;;;;7.30;5.10;;;;;;;8.54;38.64;100023.98;105671;1260;73448;-27
2024/01/31 12:38:24;;;;;;;7.40;4.50;;;;;;;8.67;39.16;100027.56;105644;1260;73486;-27
2024/01/31 12:40:52;;;;;;;11.80;6.60;;;;;;;8.58;39.24;100025.52;105566;1261;72497;-27
2024/01/31 12:43:20;;;;;;;9.10;5.30;;;;;;;8.48;39.86;100028.29;105566;1254;61640;-25
2024/01/31 12:45:50;;;;;;;8.40;5.90;;;;;;;8.36;39.79;100023.91;105676;1255;62687;-25
2024/01/31 12:48:17;;;;;;;9.90;6.70;;;;;;;7.95;40.05;100016.33;105608;1256;74097;-25
2024/01/31 12:50:45;;;;;;;9.00;6.10;;;;;;;7.68;40.83;100014.02;105642;1260;75985;-25
2024/01/31 12:53:13;;;;;;;11.40;6.50;;;;;;;7.54;40.80;100012.52;105592;1261;72967;-27
2024/01/31 12:55:41;;;;;;;11.20;5.80;;;;;;;7.51;41.55;100017.81;105419;1259;61080;-31
2024/01/31 13:06:51;;;;;;;7.40;5.30;;;;;;;7.20;42.06;100020.67;105632;1258;75716;-27
2024/01/31 13:09:19;;;;;;;10.40;5.50;;;;;;;7.18;41.89;100019.02;105682;1258;74550;-25
2024/01/31 13:11:47;;;;;;;9.50;5.80;;;;;;;6.97;42.20;100015.27;105642;1260;61211;-26
2024/01/31 13:14:15;;;;;;;8.70;5.50;;;;;;;6.82;42.41;100012.04;105535;1254;61751;-27
2024/01/31 13:16:43;;;;;;;8.70;5.60;;;;;;;6.57;42.78;100013.28;105568;1257;75657;-28
2024/01/31 13:19:27;;;;;;;;;;;;;;;6.36;43.30;100018.23;105564;1258;75844;-27
2024/01/31 13:21:55;;;;;;;10.30;5.40;;;;;;;6.35;43.36;100019.36;105431;1263;74262;-27
2024/01/31 13:24:23;;;;;;;8.50;4.60;;;;;;;6.17;44.22;100019.18;105615;1260;61141;-28